createdAt,value
2018-09-21T00:01:27.569Z,48.93
2018-09-21T00:03:55.854Z,31.10
2018-09-21T00:06:24.158Z,49.03
2018-09-21T00:08:52.442Z,27.97
2018-09-21T00:11:20.745Z,39.60
2018-09-21T00:13:49.052Z,29.50
2018-09-21T00:16:17.340Z,27.80
2018-09-21T00:18:45.621Z,43.10
2018-09-21T00:21:13.926Z,28.67
2018-09-21T00:23:42.223Z,31.37
2018-09-21T00:26:10.522Z,34.23
2018-09-21T00:28:38.833Z,28.00
2018-09-21T00:31:07.126Z,32.07
2018-09-21T00:33:35.418Z,28.63
2018-09-21T00:36:03.732Z,30.67
2018-09-21T00:38:32.130Z,35.00
2018-09-21T00:41:00.613Z,35.40
2018-09-21T00:43:28.935Z,43.70
2018-09-21T00:45:57.222Z,46.93
2018-09-21T00:48:25.538Z,36.00
2018-09-21T00:50:53.847Z,31.00
2018-09-21T00:53:22.146Z,37.60
2018-09-21T00:55:50.454Z,34.33
2018-09-21T00:58:18.754Z,40.03
2018-09-21T01:00:47.050Z,32.03
2018-09-21T01:03:15.348Z,42.87
2018-09-21T01:05:43.666Z,42.80
2018-09-21T01:08:11.955Z,27.97
2018-09-21T01:10:40.251Z,34.87
2018-09-21T01:13:08.574Z,39.10
2018-09-21T01:15:36.886Z,37.73
2018-09-21T01:18:05.190Z,40.23
2018-09-21T01:20:33.499Z,41.30
2018-09-21T01:23:01.800Z,37.83
2018-09-21T01:25:30.096Z,44.57
2018-09-21T01:27:58.406Z,44.00
2018-09-21T01:30:26.703Z,43.67
2018-09-21T01:32:55.027Z,36.60
2018-09-21T01:35:23.339Z,39.67
2018-09-21T01:37:51.635Z,36.53
2018-09-21T01:40:19.939Z,34.80
2018-09-21T01:42:48.243Z,40.77
2018-09-21T01:45:16.534Z,30.33
2018-09-21T01:47:45.654Z,39.43
2018-09-21T01:50:13.962Z,31.77
2018-09-21T01:52:42.271Z,35.93
2018-09-21T01:55:10.566Z,36.00
2018-09-21T01:57:38.886Z,38.90
2018-09-21T02:00:07.188Z,37.63
2018-09-21T02:02:35.483Z,40.33
2018-09-21T02:05:03.802Z,31.20
2018-09-21T02:07:32.099Z,29.13
2018-09-21T02:10:00.392Z,30.83
2018-09-21T02:12:28.702Z,33.00
2018-09-21T02:14:56.987Z,46.97
2018-09-21T02:17:25.282Z,37.90
2018-09-21T02:19:53.610Z,39.57
2018-09-21T02:22:21.906Z,39.40
2018-09-21T02:24:50.223Z,42.20
2018-09-21T02:27:18.530Z,41.30
2018-09-21T02:29:46.826Z,38.70
2018-09-21T02:32:15.117Z,39.47
2018-09-21T02:34:43.434Z,34.33
2018-09-21T02:37:11.718Z,35.23
2018-09-21T02:39:40.011Z,32.13
2018-09-21T02:42:08.315Z,37.70
2018-09-21T02:44:36.606Z,41.70
2018-09-21T02:47:04.907Z,46.53
2018-09-21T02:49:33.212Z,34.80
2018-09-21T02:52:01.511Z,33.63
2018-09-21T02:54:29.805Z,35.27
2018-09-21T02:56:58.115Z,33.23
2018-09-21T02:59:26.409Z,38.33
2018-09-21T03:01:54.706Z,34.90
2018-09-21T03:04:23.015Z,35.93
2018-09-21T03:06:51.316Z,34.70
2018-09-21T03:09:19.602Z,45.03
2018-09-21T03:11:47.905Z,36.30
2018-09-21T03:14:16.205Z,44.37
2018-09-21T03:16:44.512Z,39.00
2018-09-21T03:19:12.824Z,40.30
2018-09-21T03:21:41.107Z,43.93
2018-09-21T03:24:09.399Z,45.90
2018-09-21T03:26:37.714Z,60.47
2018-09-21T03:29:06.003Z,69.03
2018-09-21T03:31:34.286Z,77.17
2018-09-21T03:34:02.598Z,56.03
2018-09-21T03:36:30.902Z,50.33
2018-09-21T03:38:59.182Z,46.00
2018-09-21T03:41:27.491Z,44.63
2018-09-21T03:43:55.779Z,46.60
2018-09-21T03:46:24.079Z,50.53
2018-09-21T03:48:52.374Z,61.60
2018-09-21T03:51:20.665Z,54.50
2018-09-21T03:53:48.958Z,36.20
2018-09-21T03:56:17.259Z,43.93
2018-09-21T03:58:45.557Z,40.43
2018-09-21T04:01:13.871Z,36.03
2018-09-21T04:03:42.143Z,45.17
2018-09-21T04:06:10.432Z,40.03
2018-09-21T04:08:38.722Z,31.23
2018-09-21T04:11:07.063Z,32.13
2018-09-21T04:13:35.356Z,32.00
2018-09-21T04:16:03.643Z,32.20
2018-09-21T04:18:31.952Z,31.30
2018-09-21T04:21:00.248Z,29.30
2018-09-21T04:23:28.834Z,28.40
2018-09-21T04:25:57.135Z,35.70
2018-09-21T04:28:25.475Z,34.67
2018-09-21T04:30:53.775Z,27.73
2018-09-21T04:33:22.070Z,41.43
2018-09-21T04:35:51.938Z,41.17
2018-09-21T04:38:20.215Z,32.73
2018-09-21T04:40:48.527Z,30.13
2018-09-21T04:43:16.828Z,30.53
2018-09-21T04:45:45.184Z,30.17
2018-09-21T04:48:13.426Z,34.70
2018-09-21T04:50:41.722Z,26.63
2018-09-21T04:53:10.021Z,29.83
2018-09-21T04:55:38.335Z,30.57
2018-09-21T04:58:06.628Z,35.90
2018-09-21T05:00:34.948Z,28.73
2018-09-21T05:03:03.251Z,29.67
2018-09-21T05:05:31.552Z,30.67
2018-09-21T05:07:59.851Z,35.30
2018-09-21T05:10:28.159Z,35.70
2018-09-21T05:12:56.448Z,30.23
2018-09-21T05:15:24.735Z,44.87
2018-09-21T05:17:53.051Z,27.37
2018-09-21T05:20:21.347Z,33.90
2018-09-21T05:22:49.638Z,25.80
2018-09-21T05:25:17.938Z,29.33
2018-09-21T05:27:46.237Z,35.53
2018-09-21T05:30:14.522Z,27.53
2018-09-21T05:32:42.826Z,33.83
2018-09-21T05:35:11.171Z,34.23
2018-09-21T05:37:39.419Z,33.93
2018-09-21T05:40:08.294Z,35.97
2018-09-21T05:42:36.596Z,38.67
2018-09-21T05:45:04.883Z,47.77
2018-09-21T05:47:33.211Z,35.73
2018-09-21T05:50:01.506Z,39.50
2018-09-21T05:52:29.803Z,42.50
2018-09-21T05:54:58.116Z,46.00
2018-09-21T05:57:26.407Z,42.63
2018-09-21T05:59:54.710Z,40.37
2018-09-21T06:02:23.046Z,43.93
2018-09-21T06:04:51.318Z,45.10
2018-09-21T06:07:19.603Z,51.20
2018-09-21T06:09:47.927Z,48.43
2018-09-21T06:12:16.234Z,47.30
2018-09-21T06:14:44.522Z,36.87
2018-09-21T06:17:12.827Z,29.30
2018-09-21T06:19:41.156Z,44.53
2018-09-21T06:22:09.459Z,43.00
2018-09-21T06:24:37.763Z,30.23
2018-09-21T06:27:06.508Z,34.80
2018-09-21T06:29:34.815Z,28.60
2018-09-21T06:32:03.135Z,37.17
2018-09-21T06:34:31.428Z,44.17
2018-09-21T06:36:59.718Z,25.33
2018-09-21T06:39:28.023Z,33.50
2018-09-21T06:41:56.310Z,28.60
2018-09-21T06:44:24.648Z,23.53
2018-09-21T06:46:52.916Z,25.70
2018-09-21T06:49:21.202Z,36.30
2018-09-21T06:51:49.500Z,27.30
2018-09-21T06:54:17.799Z,29.40
2018-09-21T06:56:46.128Z,27.83
2018-09-21T06:59:14.418Z,22.70
2018-09-21T07:01:42.766Z,25.23
2018-09-21T07:04:11.030Z,30.13
2018-09-21T07:06:39.322Z,26.83
2018-09-21T07:09:07.632Z,22.70
2018-09-21T07:11:35.910Z,18.57
2018-09-21T07:14:04.198Z,27.33
2018-09-21T07:16:32.556Z,20.80
2018-09-21T07:19:00.807Z,34.90
2018-09-21T07:21:29.094Z,25.93
2018-09-21T07:23:57.391Z,27.33
2018-09-21T07:26:25.679Z,23.77
2018-09-21T07:28:53.998Z,22.10
2018-09-21T07:31:22.374Z,22.47
2018-09-21T07:33:50.576Z,26.70
2018-09-21T07:36:18.853Z,23.60
2018-09-21T07:38:47.146Z,21.43
2018-09-21T07:41:15.434Z,17.63
2018-09-21T07:43:43.715Z,27.77
2018-09-21T07:46:12.023Z,20.17
2018-09-21T07:48:40.295Z,23.03
2018-09-21T07:51:08.582Z,24.90
2018-09-21T07:53:36.886Z,16.33
2018-09-21T07:56:05.178Z,19.43
2018-09-21T07:58:33.466Z,20.63
2018-09-21T08:01:01.759Z,20.27
2018-09-21T08:03:30.056Z,18.97
2018-09-21T08:05:58.342Z,18.37
2018-09-21T08:08:26.641Z,15.00
2018-09-21T08:10:54.926Z,21.70
2018-09-21T08:13:23.207Z,20.90
2018-09-21T08:15:51.503Z,16.70
2018-09-21T08:18:19.798Z,24.80
2018-09-21T08:20:48.078Z,22.60
2018-09-21T08:23:16.379Z,19.53
2018-09-21T08:25:44.675Z,23.93
2018-09-21T08:28:12.954Z,23.53
2018-09-21T08:30:41.251Z,20.80
2018-09-21T08:33:09.543Z,15.60
2018-09-21T08:35:37.818Z,17.83
2018-09-21T08:38:06.137Z,25.23
2018-09-21T08:40:34.421Z,19.10
2018-09-21T08:43:02.706Z,15.13
2018-09-21T08:45:31.058Z,18.37
2018-09-21T08:47:59.284Z,22.60
2018-09-21T08:50:27.946Z,18.13
2018-09-21T08:52:56.250Z,21.03
2018-09-21T08:55:24.534Z,18.13
2018-09-21T08:57:52.825Z,21.60
2018-09-21T09:00:21.147Z,18.37
2018-09-21T09:02:49.444Z,25.73
2018-09-21T09:05:17.706Z,20.57
2018-09-21T09:07:46.003Z,16.03
2018-09-21T09:10:14.296Z,16.93
2018-09-21T09:12:42.583Z,18.23
2018-09-21T09:15:10.878Z,18.80
2018-09-21T09:17:39.158Z,20.43
2018-09-21T09:20:07.444Z,19.37
2018-09-21T09:22:35.742Z,25.37
2018-09-21T09:25:04.045Z,19.57
2018-09-21T09:27:32.323Z,20.10
2018-09-21T09:30:00.625Z,22.07
2018-09-21T09:32:28.908Z,20.93
2018-09-21T09:34:57.190Z,19.60
2018-09-21T09:37:25.491Z,16.20
2018-09-21T09:39:53.782Z,13.97
2018-09-21T09:42:22.103Z,15.87
2018-09-21T09:44:50.403Z,21.63
2018-09-21T09:47:18.719Z,18.90
2018-09-21T09:49:47.007Z,25.63
2018-09-21T09:52:15.314Z,17.00
2018-09-21T09:54:43.608Z,16.37
2018-09-21T09:57:11.887Z,21.80
2018-09-21T09:59:40.187Z,22.10
2018-09-21T10:02:08.466Z,18.40
2018-09-21T10:04:36.754Z,18.20
2018-09-21T10:07:05.059Z,21.33
2018-09-21T10:09:33.342Z,15.87
2018-09-21T10:12:01.631Z,19.10
2018-09-21T10:14:29.934Z,24.23
2018-09-21T10:16:58.223Z,20.43
2018-09-21T10:19:26.502Z,18.50
2018-09-21T10:21:54.803Z,15.57
2018-09-21T10:24:23.100Z,16.37
2018-09-21T10:26:51.433Z,16.83
2018-09-21T10:29:19.678Z,18.80
2018-09-21T10:31:47.971Z,21.13
2018-09-21T10:34:16.249Z,15.00
2018-09-21T10:36:51.291Z,17.40
2018-09-21T10:39:19.637Z,22.83
2018-09-21T10:41:47.859Z,16.90
2018-09-21T10:44:16.159Z,23.53
2018-09-21T10:46:44.451Z,20.43
2018-09-21T10:49:12.734Z,14.83
2018-09-21T10:51:41.026Z,20.33
2018-09-21T10:54:09.308Z,17.47
2018-09-21T10:56:37.591Z,19.53
2018-09-21T10:59:10.488Z,22.13
2018-09-21T11:01:52.111Z,24.63
2018-09-21T11:04:26.295Z,16.27
2018-09-21T11:06:54.594Z,15.33
2018-09-21T11:09:22.866Z,22.20
2018-09-21T11:11:51.165Z,18.40
2018-09-21T11:14:19.450Z,17.03
2018-09-21T11:16:47.731Z,32.50
2018-09-21T11:19:16.035Z,18.63
2018-09-21T11:21:44.324Z,16.03
2018-09-21T11:24:12.601Z,21.50
2018-09-21T11:26:40.894Z,18.47
2018-09-21T11:29:09.182Z,27.20
2018-09-21T11:31:37.466Z,20.93
2018-09-21T11:34:05.763Z,27.57
2018-09-21T11:36:34.042Z,20.53
2018-09-21T11:39:02.335Z,17.07
2018-09-21T11:41:30.628Z,17.50
2018-09-21T11:43:58.922Z,15.90
2018-09-21T11:46:27.203Z,21.33
2018-09-21T11:48:55.507Z,24.47
2018-09-21T11:51:23.791Z,17.60
2018-09-21T11:53:52.070Z,15.87
2018-09-21T11:56:20.362Z,18.40
2018-09-21T11:58:48.638Z,17.67
2018-09-21T12:01:16.921Z,15.40
2018-09-21T12:03:45.222Z,17.07
2018-09-21T12:06:13.506Z,20.10
2018-09-21T12:08:41.793Z,20.90
2018-09-21T12:11:10.091Z,16.53
2018-09-21T12:13:38.371Z,19.53
2018-09-21T12:16:06.766Z,17.20
2018-09-21T12:18:34.998Z,22.80
2018-09-21T12:21:03.298Z,19.23
2018-09-21T12:23:31.587Z,14.63
2018-09-21T12:25:59.882Z,16.73
2018-09-21T12:28:28.164Z,21.23
2018-09-21T12:30:56.485Z,20.63
2018-09-21T12:33:24.742Z,20.50
2018-09-21T12:35:53.088Z,20.80
2018-09-21T12:38:21.334Z,23.90
2018-09-21T12:40:49.634Z,18.43
2018-09-21T12:43:17.916Z,16.83
2018-09-21T12:45:46.197Z,18.20
2018-09-21T12:48:14.498Z,16.37
2018-09-21T12:50:42.845Z,15.00
2018-09-21T12:53:11.062Z,15.50
2018-09-21T12:55:39.366Z,17.37
2018-09-21T12:58:07.709Z,23.90
2018-09-21T13:00:35.953Z,14.20
2018-09-21T13:03:04.269Z,22.13
2018-09-21T13:05:32.630Z,17.67
2018-09-21T13:08:00.887Z,24.53
2018-09-21T13:10:29.192Z,26.30
2018-09-21T13:12:57.684Z,18.27
2018-09-21T13:15:26.182Z,27.53
2018-09-21T13:17:54.483Z,16.50
2018-09-21T13:20:22.758Z,27.40
2018-09-21T13:22:51.046Z,19.97
2018-09-21T13:25:19.342Z,17.73
2018-09-21T13:27:47.630Z,18.10
2018-09-21T13:30:15.914Z,20.17
2018-09-21T13:32:44.236Z,16.13
2018-09-21T13:35:12.515Z,22.13
2018-09-21T13:37:40.791Z,14.77
2018-09-21T13:40:09.098Z,17.00
2018-09-21T13:42:37.394Z,11.90
2018-09-21T13:45:05.675Z,29.30
2018-09-21T13:47:33.971Z,19.70
2018-09-21T13:50:02.251Z,22.03
2018-09-21T13:52:30.534Z,21.80
2018-09-21T13:54:58.835Z,19.87
2018-09-21T13:57:27.114Z,19.30
2018-09-21T13:59:55.407Z,31.73
2018-09-21T14:02:23.906Z,21.93
2018-09-21T14:04:52.186Z,21.77
2018-09-21T14:07:20.476Z,23.37
2018-09-21T14:09:48.762Z,22.00
2018-09-21T14:12:17.044Z,20.93
2018-09-21T14:14:45.326Z,15.90
2018-09-21T14:17:13.623Z,20.60
2018-09-21T14:19:41.908Z,18.40
2018-09-21T14:22:10.195Z,17.90
2018-09-21T14:24:38.491Z,19.20
2018-09-21T14:27:06.775Z,19.07
2018-09-21T14:29:35.058Z,14.93
2018-09-21T14:32:03.366Z,13.30
2018-09-21T14:34:31.653Z,22.43
2018-09-21T14:36:59.935Z,18.53
2018-09-21T14:39:28.273Z,23.90
2018-09-21T14:41:56.568Z,24.33
2018-09-21T14:44:24.845Z,13.37
2018-09-21T14:46:53.134Z,13.70
2018-09-21T14:49:21.546Z,15.00
2018-09-21T14:51:49.854Z,13.17
2018-09-21T14:54:18.154Z,14.33
2018-09-21T14:56:46.434Z,10.33
2018-09-21T14:59:14.706Z,7.80
2018-09-21T15:01:42.998Z,15.30
2018-09-21T15:04:11.278Z,12.97
2018-09-21T15:06:39.559Z,11.63
2018-09-21T15:09:07.852Z,15.33
2018-09-21T15:11:36.126Z,16.43
2018-09-21T15:14:04.407Z,8.60
2018-09-21T15:16:32.758Z,24.57
2018-09-21T15:19:00.978Z,8.63
2018-09-21T15:21:29.246Z,11.17
2018-09-21T15:23:57.535Z,10.70
2018-09-21T15:26:25.814Z,23.53
2018-09-21T15:28:54.086Z,18.70
2018-09-21T15:31:22.381Z,45.90
2018-09-21T15:33:50.663Z,31.77
2018-09-21T15:36:21.974Z,21.30
2018-09-21T15:38:50.268Z,30.63
2018-09-21T15:41:18.557Z,30.87
2018-09-21T15:43:46.938Z,28.97
2018-09-21T15:46:15.245Z,39.47
2018-09-21T15:48:43.566Z,13.73
2018-09-21T15:51:11.822Z,13.37
2018-09-21T15:53:40.118Z,7.27
2018-09-21T15:56:08.398Z,12.20
2018-09-21T15:58:36.691Z,14.37
2018-09-21T16:01:04.971Z,13.50
2018-09-21T16:03:33.246Z,6.40
2018-09-21T16:06:01.579Z,8.63
2018-09-21T16:08:29.806Z,6.53
2018-09-21T16:10:58.083Z,4.37
2018-09-21T16:13:26.362Z,4.10
2018-09-21T16:15:54.650Z,4.37
2018-09-21T16:18:22.922Z,4.80
2018-09-21T16:20:51.210Z,9.53
2018-09-21T16:23:19.507Z,9.33
2018-09-21T16:25:47.774Z,6.13
2018-09-21T16:28:16.052Z,3.60
2018-09-21T16:30:44.513Z,3.67
2018-09-21T16:33:12.753Z,4.13
2018-09-21T16:35:41.023Z,5.13
2018-09-21T16:38:09.310Z,5.87
2018-09-21T16:40:37.600Z,4.67
2018-09-21T16:43:05.894Z,4.63
2018-09-21T16:45:34.182Z,5.40
2018-09-21T16:48:02.534Z,7.30
2018-09-21T16:50:30.814Z,3.70
2018-09-21T16:52:59.115Z,5.00
2018-09-21T16:55:27.394Z,4.40
2018-09-21T16:57:55.716Z,3.47
2018-09-21T17:00:23.982Z,3.37
2018-09-21T17:02:52.258Z,3.53
2018-09-21T17:05:20.543Z,6.00
2018-09-21T17:07:48.855Z,5.03
2018-09-21T17:10:17.130Z,8.47
2018-09-21T17:12:45.413Z,6.60
2018-09-21T17:15:13.703Z,7.47
2018-09-21T17:17:41.976Z,7.00
2018-09-21T17:20:10.279Z,9.90
2018-09-21T17:22:38.551Z,4.60
2018-09-21T17:25:06.830Z,6.20
2018-09-21T17:27:35.124Z,6.00
2018-09-21T17:30:03.418Z,5.30
2018-09-21T17:32:31.704Z,10.30
2018-09-21T17:34:59.997Z,11.40
2018-09-21T17:37:28.327Z,14.27
2018-09-21T17:39:56.599Z,6.90
2018-09-21T17:42:24.864Z,10.90
2018-09-21T17:44:53.172Z,7.97
2018-09-21T17:47:21.446Z,8.63
2018-09-21T17:49:49.726Z,7.20
2018-09-21T17:52:18.019Z,10.13
2018-09-21T17:54:46.333Z,8.87
2018-09-21T17:57:14.611Z,6.67
2018-09-21T17:59:42.909Z,10.43
2018-09-21T18:02:11.203Z,11.63
2018-09-21T18:04:39.485Z,17.73
2018-09-21T18:07:07.788Z,6.20
2018-09-21T18:09:36.070Z,11.00
2018-09-21T18:12:04.347Z,12.87
2018-09-21T18:14:32.649Z,11.10
2018-09-21T18:17:00.935Z,30.17
2018-09-21T18:19:29.218Z,13.30
2018-09-21T18:21:57.506Z,10.97
2018-09-21T18:24:25.792Z,10.47
2018-09-21T18:26:54.082Z,17.23
2018-09-21T18:29:22.374Z,9.27
2018-09-21T18:31:50.647Z,9.23
2018-09-21T18:34:18.924Z,11.90
2018-09-21T18:36:47.232Z,12.70
2018-09-21T18:39:22.692Z,6.03
2018-09-21T18:41:52.143Z,15.20
2018-09-21T18:44:20.423Z,6.53
2018-09-21T18:46:48.703Z,16.83
2018-09-21T18:49:17.022Z,11.70
2018-09-21T18:51:45.319Z,13.00
2018-09-21T18:54:13.645Z,8.53
2018-09-21T18:56:41.928Z,10.70
2018-09-21T18:59:10.284Z,17.10
2018-09-21T19:01:38.742Z,9.67
2018-09-21T19:04:07.058Z,8.27
2018-09-21T19:06:35.314Z,14.50
2018-09-21T19:09:03.623Z,15.00
2018-09-21T19:11:31.920Z,14.07
2018-09-21T19:14:00.206Z,9.47
2018-09-21T19:16:28.484Z,14.17
2018-09-21T19:18:56.803Z,7.80
2018-09-21T19:21:25.066Z,6.47
2018-09-21T19:23:53.363Z,10.40
2018-09-21T19:26:21.689Z,9.03
2018-09-21T19:28:49.939Z,10.30
2018-09-21T19:31:18.218Z,11.90
2018-09-21T19:33:46.517Z,12.07
2018-09-21T19:36:14.818Z,10.30
2018-09-21T19:38:43.249Z,11.80
2018-09-21T19:41:11.418Z,16.67
2018-09-21T19:43:39.705Z,11.50
2018-09-21T19:46:07.986Z,8.13
2018-09-21T19:48:36.290Z,9.33
2018-09-21T19:51:04.570Z,8.50
2018-09-21T19:53:32.866Z,8.10
2018-09-21T19:56:01.163Z,8.47
2018-09-21T19:58:29.447Z,6.93
2018-09-21T20:00:57.727Z,9.53
2018-09-21T20:03:26.060Z,7.60
2018-09-21T20:05:54.311Z,7.00
2018-09-21T20:08:22.590Z,8.83
2018-09-21T20:10:50.891Z,12.70
2018-09-21T20:13:19.177Z,4.90
2018-09-21T20:15:47.472Z,5.73
2018-09-21T20:18:15.767Z,18.10
2018-09-21T20:20:44.047Z,14.83
2018-09-21T20:23:12.342Z,9.13
2018-09-21T20:25:40.630Z,5.97
2018-09-21T20:28:08.906Z,7.20
2018-09-21T20:30:37.194Z,7.27
2018-09-21T20:36:06.747Z,8.23
2018-09-21T20:38:35.040Z,9.17
2018-09-21T20:41:03.334Z,10.07
2018-09-21T20:43:31.635Z,7.30
2018-09-21T20:46:00.072Z,7.93
2018-09-21T20:48:28.335Z,14.57
2018-09-21T20:50:56.619Z,10.53
2018-09-21T20:53:24.915Z,6.33
2018-09-21T20:55:53.195Z,8.70
2018-09-21T20:58:21.471Z,13.10
2018-09-21T21:00:49.789Z,8.30
2018-09-21T21:03:18.067Z,9.03
2018-09-21T21:05:46.364Z,10.53
2018-09-21T21:08:14.671Z,4.13
2018-09-21T21:10:42.951Z,7.07
2018-09-21T21:13:11.286Z,15.93
2018-09-21T21:15:39.578Z,5.73
2018-09-21T21:18:07.801Z,8.37
2018-09-21T21:20:36.091Z,11.97
2018-09-21T21:23:04.376Z,7.63
2018-09-21T21:25:33.641Z,9.13
2018-09-21T21:28:01.939Z,15.93
2018-09-21T21:30:30.246Z,11.70
2018-09-21T21:32:58.535Z,10.00
2018-09-21T21:35:26.822Z,4.10
2018-09-21T21:37:55.141Z,4.53
2018-09-21T21:40:23.427Z,6.27
2018-09-21T21:42:51.695Z,11.17
2018-09-21T21:45:19.986Z,12.57
2018-09-21T21:47:48.270Z,4.40
2018-09-21T21:50:16.749Z,11.03
2018-09-21T21:52:45.057Z,6.47
2018-09-21T21:55:13.331Z,8.47
2018-09-21T21:57:41.614Z,14.23
2018-09-21T22:00:09.914Z,8.30
2018-09-21T22:02:38.203Z,8.93
2018-09-21T22:05:06.485Z,9.13
2018-09-21T22:07:34.803Z,5.23
2018-09-21T22:10:03.177Z,9.90
2018-09-21T22:12:37.134Z,6.53
2018-09-21T22:15:05.403Z,7.43
2018-09-21T22:17:33.687Z,11.37
2018-09-21T22:20:01.975Z,6.13
2018-09-21T22:22:30.258Z,6.50
2018-09-21T22:24:58.558Z,7.33
2018-09-21T22:27:26.839Z,7.73
2018-09-21T22:29:55.116Z,8.40
2018-09-21T22:32:23.398Z,10.23
2018-09-21T22:34:51.687Z,10.23
2018-09-21T22:37:19.986Z,7.70
2018-09-21T22:39:48.419Z,8.43
2018-09-21T22:42:16.702Z,8.50
2018-09-21T22:44:45.006Z,6.33
2018-09-21T22:47:13.320Z,7.57
2018-09-21T22:49:42.059Z,4.83
2018-09-21T22:52:10.398Z,9.10
2018-09-21T22:54:38.679Z,9.23
2018-09-21T22:57:07.152Z,11.57
2018-09-21T22:59:35.446Z,9.60
2018-09-21T23:02:03.730Z,6.63
2018-09-21T23:04:32.007Z,8.43
2018-09-21T23:07:00.412Z,14.10
2018-09-21T23:09:28.671Z,9.90
2018-09-21T23:11:57.118Z,14.00
2018-09-21T23:14:25.468Z,4.27
2018-09-21T23:16:53.760Z,6.63
2018-09-21T23:19:22.862Z,9.83
2018-09-21T23:21:51.149Z,6.03
2018-09-21T23:24:19.501Z,6.30
2018-09-21T23:26:47.770Z,3.83
2018-09-21T23:29:16.068Z,9.70
2018-09-21T23:31:44.410Z,6.53
2018-09-21T23:34:12.690Z,12.30
2018-09-21T23:36:41.078Z,6.73
2018-09-21T23:39:09.358Z,12.43
2018-09-21T23:41:37.706Z,12.43
2018-09-21T23:44:05.986Z,8.37
2018-09-21T23:46:34.274Z,9.93
2018-09-21T23:49:02.581Z,15.37
2018-09-21T23:51:30.882Z,15.20
2018-09-21T23:53:59.206Z,18.27
2018-09-21T23:56:27.489Z,10.37
2018-09-21T23:58:55.778Z,16.07
